Sheikhupura Weather



Sheikhupura's Current Weather

Temprature 25o smoke

smoke

Rain: 0 %

Min Temprature25o
Max Temprature25o
Humidity57
Wind Speed6.2 m/h
Sun Rise06:08:44
Sun Set17:29:33
Current Time: 18-Oct-2019 16:54:24
Lat/Lon: 31.71, 73.99




Sheikhupura's Geo Location



Sheikhupura's Weather Forecast

Time Overall Temp Min Temp Max Temp Humidity Wind Speed Rain
18-Oct-2019 (Fri)
17:00:00 clear sky 24.530 24.530 31.822 23 3.97 m/h 0 %
20:00:00 light rain 19.840 19.840 25.313 38 1.89 m/h 56 %
23:00:00 light rain 20.380 20.380 24.029 47 1.62 m/h 63 %
19-Oct-2019 (Sat)
02:00:00 broken clouds 20.300 20.300 22.128 51 3.83 m/h 0 %
05:00:00 scattered clouds 20.628 20.628 20.628 52 3.19 m/h 0 %
08:00:00 clear sky 24.532 24.532 24.532 40 1.76 m/h 0 %
11:00:00 clear sky 31.650 31.650 31.650 20 2.97 m/h 0 %
14:00:00 clear sky 34.173 34.173 34.173 14 2.62 m/h 0 %
17:00:00 clear sky 31.184 31.184 31.184 17 2.67 m/h 0 %
20:00:00 clear sky 25.331 25.331 25.331 28 1.98 m/h 0 %
23:00:00 clear sky 23.414 23.414 23.414 33 1.99 m/h 0 %
20-Oct-2019 (Sun)
02:00:00 clear sky 21.577 21.577 21.577 37 1.21 m/h 0 %
05:00:00 clear sky 20.668 20.668 20.668 37 1.36 m/h 0 %
08:00:00 clear sky 24.914 24.914 24.914 29 1.38 m/h 0 %
11:00:00 few clouds 31.950 31.950 31.950 18 1.87 m/h 0 %
14:00:00 overcast clouds 33.483 33.483 33.483 14 2.94 m/h 0 %
17:00:00 overcast clouds 30.541 30.541 30.541 17 2.05 m/h 0 %
20:00:00 overcast clouds 25.343 25.343 25.343 24 1.99 m/h 0 %
23:00:00 broken clouds 23.629 23.629 23.629 27 1.98 m/h 0 %
21-Oct-2019 (Mon)
02:00:00 clear sky 21.916 21.916 21.916 30 1.4 m/h 0 %
05:00:00 clear sky 20.497 20.497 20.497 33 1.49 m/h 0 %
08:00:00 clear sky 24.542 24.542 24.542 27 1.96 m/h 0 %
11:00:00 clear sky 32.045 32.045 32.045 16 1.99 m/h 0 %
14:00:00 clear sky 33.988 33.988 33.988 12 2.85 m/h 0 %
17:00:00 clear sky 30.444 30.444 30.444 15 1.37 m/h 0 %
20:00:00 overcast clouds 25.553 25.553 25.553 21 1.08 m/h 0 %
23:00:00 broken clouds 24.064 24.064 24.064 23 2.43 m/h 0 %
22-Oct-2019 (Tue)
02:00:00 clear sky 21.472 21.472 21.472 30 2.27 m/h 0 %
05:00:00 clear sky 20.136 20.136 20.136 34 1.15 m/h 0 %
08:00:00 clear sky 24.661 24.661 24.661 25 1.63 m/h 0 %
11:00:00 clear sky 33.335 33.335 33.335 15 0.38 m/h 0 %
14:00:00 clear sky 34.499 34.499 34.499 12 2.42 m/h 0 %
17:00:00 clear sky 30.999 30.999 30.999 15 1.83 m/h 0 %
20:00:00 scattered clouds 27.050 27.050 27.050 18 1.32 m/h 0 %
23:00:00 broken clouds 23.822 23.822 23.822 24 2.33 m/h 0 %
23-Oct-2019 (Wed)
02:00:00 overcast clouds 21.895 21.895 21.895 30 1.77 m/h 0 %
05:00:00 broken clouds 20.948 20.948 20.948 29 2.64 m/h 0 %
08:00:00 overcast clouds 24.013 24.013 24.013 25 1.8 m/h 0 %
11:00:00 overcast clouds 31.904 31.904 31.904 15 3.25 m/h 0 %
14:00:00 broken clouds 34.971 34.971 34.971 10 2.61 m/h 0 %

Famous Cities (61)